sensor_id;sensor_type;location;lat;lon;timestamp;temperature;humidity
19809;DHT22;48538;32.784;-96.802;2023-08-31T00:00:35;31.80;99.90
19809;DHT22;48538;32.784;-96.802;2023-08-31T00:03:03;31.80;99.90
19809;DHT22;48538;32.784;-96.802;2023-08-31T00:05:29;31.70;99.90
19809;DHT22;48538;32.784;-96.802;2023-08-31T00:07:56;31.70;99.90
19809;DHT22;48538;32.784;-96.802;2023-08-31T00:10:22;31.70;99.90
19809;DHT22;48538;32.784;-96.802;2023-08-31T00:12:49;31.70;99.90
19809;DHT22;48538;32.784;-96.802;2023-08-31T00:15:16;31.60;99.90
19809;DHT22;48538;32.784;-96.802;2023-08-31T00:17:42;31.60;99.90
19809;DHT22;48538;32.784;-96.802;2023-08-31T00:20:08;31.60;99.90
19809;DHT22;48538;32.784;-96.802;2023-08-31T00:22:37;31.60;99.90
19809;DHT22;48538;32.784;-96.802;2023-08-31T00:25:05;31.50;99.90
19809;DHT22;48538;32.784;-96.802;2023-08-31T00:27:35;31.60;99.90
19809;DHT22;48538;32.784;-96.802;2023-08-31T00:30:05;31.50;99.90
19809;DHT22;48538;32.784;-96.802;2023-08-31T00:32:33;31.40;99.90
19809;DHT22;48538;32.784;-96.802;2023-08-31T00:35:00;31.40;99.90
19809;DHT22;48538;32.784;-96.802;2023-08-31T00:37:26;31.40;99.90
19809;DHT22;48538;32.784;-96.802;2023-08-31T00:39:53;31.30;99.90
19809;DHT22;48538;32.784;-96.802;2023-08-31T00:42:20;31.20;99.90
19809;DHT22;48538;32.784;-96.802;2023-08-31T00:44:47;31.20;99.90
19809;DHT22;48538;32.784;-96.802;2023-08-31T00:47:14;31.10;99.90
19809;DHT22;48538;32.784;-96.802;2023-08-31T00:49:41;31.10;99.90
19809;DHT22;48538;32.784;-96.802;2023-08-31T00:52:07;31.00;99.90
19809;DHT22;48538;32.784;-96.802;2023-08-31T00:54:35;31.00;99.90
19809;DHT22;48538;32.784;-96.802;2023-08-31T00:57:02;30.90;99.90
19809;DHT22;48538;32.784;-96.802;2023-08-31T00:59:29;30.90;99.90
19809;DHT22;48538;32.784;-96.802;2023-08-31T01:02:13;30.80;99.90
19809;DHT22;48538;32.784;-96.802;2023-08-31T01:04:53;30.80;99.90
19809;DHT22;48538;32.784;-96.802;2023-08-31T01:07:50;30.80;99.90
19809;DHT22;48538;32.784;-96.802;2023-08-31T01:13:17;30.70;99.90
19809;DHT22;48538;32.784;-96.802;2023-08-31T01:15:47;30.70;99.90
19809;DHT22;48538;32.784;-96.802;2023-08-31T01:18:18;30.60;99.90
19809;DHT22;48538;32.784;-96.802;2023-08-31T01:21:27;30.60;99.90
19809;DHT22;48538;32.784;-96.802;2023-08-31T01:23:57;30.60;99.90
19809;DHT22;48538;32.784;-96.802;2023-08-31T01:26:24;30.60;99.90
19809;DHT22;48538;32.784;-96.802;2023-08-31T01:28:52;30.60;99.90
19809;DHT22;48538;32.784;-96.802;2023-08-31T01:31:18;30.50;99.90
19809;DHT22;48538;32.784;-96.802;2023-08-31T01:33:46;30.50;99.90
19809;DHT22;48538;32.784;-96.802;2023-08-31T01:36:29;30.40;99.90
19809;DHT22;48538;32.784;-96.802;2023-08-31T01:41:38;30.40;99.90
19809;DHT22;48538;32.784;-96.802;2023-08-31T01:44:09;30.40;99.90
19809;DHT22;48538;32.784;-96.802;2023-08-31T01:46:40;30.30;99.90
19809;DHT22;48538;32.784;-96.802;2023-08-31T01:49:07;30.30;99.90
19809;DHT22;48538;32.784;-96.802;2023-08-31T01:51:34;30.20;99.90
19809;DHT22;48538;32.784;-96.802;2023-08-31T01:54:01;30.20;99.90
19809;DHT22;48538;32.784;-96.802;2023-08-31T01:56:27;30.20;99.90
19809;DHT22;48538;32.784;-96.802;2023-08-31T01:58:53;30.20;99.90
19809;DHT22;48538;32.784;-96.802;2023-08-31T02:01:20;30.10;99.90
19809;DHT22;48538;32.784;-96.802;2023-08-31T02:03:46;30.10;99.90
19809;DHT22;48538;32.784;-96.802;2023-08-31T02:06:12;30.10;99.90
19809;DHT22;48538;32.784;-96.802;2023-08-31T02:08:39;30.10;99.90
19809;DHT22;48538;32.784;-96.802;2023-08-31T02:11:05;30.00;99.90
19809;DHT22;48538;32.784;-96.802;2023-08-31T02:13:31;30.00;99.90
19809;DHT22;48538;32.784;-96.802;2023-08-31T02:15:57;30.00;99.90
19809;DHT22;48538;32.784;-96.802;2023-08-31T02:18:24;30.00;99.90
19809;DHT22;48538;32.784;-96.802;2023-08-31T02:20:52;30.00;99.90
19809;DHT22;48538;32.784;-96.802;2023-08-31T02:23:19;30.00;99.90
19809;DHT22;48538;32.784;-96.802;2023-08-31T02:25:45;29.90;99.90
19809;DHT22;48538;32.784;-96.802;2023-08-31T02:28:11;29.90;99.90
19809;DHT22;48538;32.784;-96.802;2023-08-31T02:30:37;29.90;99.90
19809;DHT22;48538;32.784;-96.802;2023-08-31T02:33:04;29.90;99.90
19809;DHT22;48538;32.784;-96.802;2023-08-31T02:35:30;29.90;99.90
19809;DHT22;48538;32.784;-96.802;2023-08-31T02:37:56;29.90;99.90
19809;DHT22;48538;32.784;-96.802;2023-08-31T02:40:23;29.90;99.90
19809;DHT22;48538;32.784;-96.802;2023-08-31T02:42:52;29.90;99.90
19809;DHT22;48538;32.784;-96.802;2023-08-31T02:45:19;29.90;99.90
19809;DHT22;48538;32.784;-96.802;2023-08-31T02:47:46;29.90;99.90
19809;DHT22;48538;32.784;-96.802;2023-08-31T02:50:13;29.90;99.90
19809;DHT22;48538;32.784;-96.802;2023-08-31T02:52:40;29.90;99.90
19809;DHT22;48538;32.784;-96.802;2023-08-31T02:55:06;29.90;99.90
19809;DHT22;48538;32.784;-96.802;2023-08-31T02:57:33;29.90;99.90
19809;DHT22;48538;32.784;-96.802;2023-08-31T02:59:59;29.90;99.90
19809;DHT22;48538;32.784;-96.802;2023-08-31T03:02:25;29.90;99.90
19809;DHT22;48538;32.784;-96.802;2023-08-31T03:04:51;29.90;99.90
19809;DHT22;48538;32.784;-96.802;2023-08-31T03:07:18;29.90;99.90
19809;DHT22;48538;32.784;-96.802;2023-08-31T03:09:48;29.80;99.90
19809;DHT22;48538;32.784;-96.802;2023-08-31T03:12:16;29.90;99.90
19809;DHT22;48538;32.784;-96.802;2023-08-31T03:14:42;29.80;99.90
19809;DHT22;48538;32.784;-96.802;2023-08-31T03:17:08;29.80;99.90
19809;DHT22;48538;32.784;-96.802;2023-08-31T03:19:35;29.80;99.90
19809;DHT22;48538;32.784;-96.802;2023-08-31T03:22:01;29.80;99.90
19809;DHT22;48538;32.784;-96.802;2023-08-31T03:24:27;29.80;99.90
19809;DHT22;48538;32.784;-96.802;2023-08-31T03:26:53;29.80;99.90
19809;DHT22;48538;32.784;-96.802;2023-08-31T03:29:19;29.70;99.90
19809;DHT22;48538;32.784;-96.802;2023-08-31T03:31:46;29.70;99.90
19809;DHT22;48538;32.784;-96.802;2023-08-31T03:34:12;29.70;99.90
19809;DHT22;48538;32.784;-96.802;2023-08-31T03:36:40;29.70;99.90
19809;DHT22;48538;32.784;-96.802;2023-08-31T03:39:06;29.60;99.90
19809;DHT22;48538;32.784;-96.802;2023-08-31T03:41:33;29.60;99.90
19809;DHT22;48538;32.784;-96.802;2023-08-31T03:44:02;29.60;99.90
19809;DHT22;48538;32.784;-96.802;2023-08-31T03:46:28;29.50;99.90
19809;DHT22;48538;32.784;-96.802;2023-08-31T03:48:54;29.60;99.90
19809;DHT22;48538;32.784;-96.802;2023-08-31T03:51:20;29.60;99.90
19809;DHT22;48538;32.784;-96.802;2023-08-31T03:53:47;29.60;99.90
19809;DHT22;48538;32.784;-96.802;2023-08-31T03:56:13;29.60;99.90
19809;DHT22;48538;32.784;-96.802;2023-08-31T03:58:39;29.60;99.90
19809;DHT22;48538;32.784;-96.802;2023-08-31T04:01:05;29.60;99.90
19809;DHT22;48538;32.784;-96.802;2023-08-31T04:03:32;29.60;99.90
19809;DHT22;48538;32.784;-96.802;2023-08-31T04:05:58;29.50;99.90
19809;DHT22;48538;32.784;-96.802;2023-08-31T04:08:24;29.50;99.90
19809;DHT22;48538;32.784;-96.802;2023-08-31T04:10:50;29.40;99.90
19809;DHT22;48538;32.784;-96.802;2023-08-31T04:13:17;29.40;99.90
19809;DHT22;48538;32.784;-96.802;2023-08-31T04:15:43;29.40;99.90
19809;DHT22;48538;32.784;-96.802;2023-08-31T04:18:09;29.40;99.90
19809;DHT22;48538;32.784;-96.802;2023-08-31T04:20:35;29.30;99.90
19809;DHT22;48538;32.784;-96.802;2023-08-31T04:23:01;29.30;99.90
19809;DHT22;48538;32.784;-96.802;2023-08-31T04:25:29;29.30;99.90
19809;DHT22;48538;32.784;-96.802;2023-08-31T04:27:59;29.30;99.90
19809;DHT22;48538;32.784;-96.802;2023-08-31T04:30:25;29.30;99.90
19809;DHT22;48538;32.784;-96.802;2023-08-31T04:32:52;29.30;99.90
19809;DHT22;48538;32.784;-96.802;2023-08-31T04:35:18;29.30;99.90
19809;DHT22;48538;32.784;-96.802;2023-08-31T04:37:45;29.30;99.90
19809;DHT22;48538;32.784;-96.802;2023-08-31T04:40:12;29.20;99.90
19809;DHT22;48538;32.784;-96.802;2023-08-31T04:42:38;29.20;99.90
19809;DHT22;48538;32.784;-96.802;2023-08-31T04:45:06;29.20;99.90
19809;DHT22;48538;32.784;-96.802;2023-08-31T04:47:33;29.20;99.90
19809;DHT22;48538;32.784;-96.802;2023-08-31T04:49:59;29.20;99.90
19809;DHT22;48538;32.784;-96.802;2023-08-31T04:52:25;29.20;99.90
19809;DHT22;48538;32.784;-96.802;2023-08-31T04:54:51;29.20;99.90
19809;DHT22;48538;32.784;-96.802;2023-08-31T04:57:18;29.10;99.90
19809;DHT22;48538;32.784;-96.802;2023-08-31T04:59:45;29.10;99.90
19809;DHT22;48538;32.784;-96.802;2023-08-31T05:02:12;29.10;99.90
19809;DHT22;48538;32.784;-96.802;2023-08-31T05:04:38;29.10;99.90
19809;DHT22;48538;32.784;-96.802;2023-08-31T05:07:04;29.10;99.90
19809;DHT22;48538;32.784;-96.802;2023-08-31T05:09:30;29.00;99.90
19809;DHT22;48538;32.784;-96.802;2023-08-31T05:12:01;29.00;99.90
19809;DHT22;48538;32.784;-96.802;2023-08-31T05:14:29;29.10;99.90
19809;DHT22;48538;32.784;-96.802;2023-08-31T05:16:56;29.00;99.90
19809;DHT22;48538;32.784;-96.802;2023-08-31T05:19:22;29.00;99.90
19809;DHT22;48538;32.784;-96.802;2023-08-31T05:21:48;29.00;99.90
19809;DHT22;48538;32.784;-96.802;2023-08-31T05:24:14;29.00;99.90
19809;DHT22;48538;32.784;-96.802;2023-08-31T05:26:40;29.00;99.90
19809;DHT22;48538;32.784;-96.802;2023-08-31T05:29:07;28.90;99.90
19809;DHT22;48538;32.784;-96.802;2023-08-31T05:31:33;28.90;99.90
19809;DHT22;48538;32.784;-96.802;2023-08-31T05:33:59;28.90;99.90
19809;DHT22;48538;32.784;-96.802;2023-08-31T05:36:25;28.90;99.90
19809;DHT22;48538;32.784;-96.802;2023-08-31T05:38:52;28.90;99.90
19809;DHT22;48538;32.784;-96.802;2023-08-31T05:41:18;28.80;99.90
19809;DHT22;48538;32.784;-96.802;2023-08-31T05:43:45;28.80;99.90
19809;DHT22;48538;32.784;-96.802;2023-08-31T05:46:11;28.70;99.90
19809;DHT22;48538;32.784;-96.802;2023-08-31T05:48:37;28.70;99.90
19809;DHT22;48538;32.784;-96.802;2023-08-31T05:51:04;28.70;99.90
19809;DHT22;48538;32.784;-96.802;2023-08-31T05:53:31;28.70;99.90
19809;DHT22;48538;32.784;-96.802;2023-08-31T05:55:58;28.70;99.90
19809;DHT22;48538;32.784;-96.802;2023-08-31T05:58:34;28.70;99.90
19809;DHT22;48538;32.784;-96.802;2023-08-31T06:01:01;28.70;99.90
19809;DHT22;48538;32.784;-96.802;2023-08-31T06:03:28;28.60;99.90
19809;DHT22;48538;32.784;-96.802;2023-08-31T06:05:56;28.60;99.90
19809;DHT22;48538;32.784;-96.802;2023-08-31T06:08:22;28.60;99.90
19809;DHT22;48538;32.784;-96.802;2023-08-31T06:10:48;28.60;99.90
19809;DHT22;48538;32.784;-96.802;2023-08-31T06:13:15;28.60;99.90
19809;DHT22;48538;32.784;-96.802;2023-08-31T06:15:41;28.60;99.90
19809;DHT22;48538;32.784;-96.802;2023-08-31T06:18:07;28.60;99.90
19809;DHT22;48538;32.784;-96.802;2023-08-31T06:20:34;28.50;99.90
19809;DHT22;48538;32.784;-96.802;2023-08-31T06:23:00;28.50;99.90
19809;DHT22;48538;32.784;-96.802;2023-08-31T06:25:26;28.50;99.90
19809;DHT22;48538;32.784;-96.802;2023-08-31T06:27:52;28.50;99.90
19809;DHT22;48538;32.784;-96.802;2023-08-31T06:30:19;28.50;99.90
19809;DHT22;48538;32.784;-96.802;2023-08-31T06:32:46;28.50;99.90
19809;DHT22;48538;32.784;-96.802;2023-08-31T06:35:14;28.50;99.90
19809;DHT22;48538;32.784;-96.802;2023-08-31T06:37:43;28.50;99.90
19809;DHT22;48538;32.784;-96.802;2023-08-31T06:40:11;28.50;99.90
19809;DHT22;48538;32.784;-96.802;2023-08-31T06:42:38;28.50;99.90
19809;DHT22;48538;32.784;-96.802;2023-08-31T06:45:07;28.40;99.90
19809;DHT22;48538;32.784;-96.802;2023-08-31T06:47:34;28.40;99.90
19809;DHT22;48538;32.784;-96.802;2023-08-31T06:50:00;28.40;99.90
19809;DHT22;48538;32.784;-96.802;2023-08-31T06:52:27;28.30;99.90
19809;DHT22;48538;32.784;-96.802;2023-08-31T06:54:54;28.30;99.90
19809;DHT22;48538;32.784;-96.802;2023-08-31T06:57:24;28.30;99.90
19809;DHT22;48538;32.784;-96.802;2023-08-31T06:59:51;28.30;99.90
19809;DHT22;48538;32.784;-96.802;2023-08-31T07:02:17;28.30;99.90
19809;DHT22;48538;32.784;-96.802;2023-08-31T07:04:45;28.20;99.90
19809;DHT22;48538;32.784;-96.802;2023-08-31T07:07:12;28.20;99.90
19809;DHT22;48538;32.784;-96.802;2023-08-31T07:09:45;28.20;99.90
19809;DHT22;48538;32.784;-96.802;2023-08-31T07:12:12;28.20;99.90
19809;DHT22;48538;32.784;-96.802;2023-08-31T07:14:38;28.10;99.90
19809;DHT22;48538;32.784;-96.802;2023-08-31T07:17:04;28.10;99.90
19809;DHT22;48538;32.784;-96.802;2023-08-31T07:19:30;28.10;99.90
19809;DHT22;48538;32.784;-96.802;2023-08-31T07:21:57;28.10;99.90
19809;DHT22;48538;32.784;-96.802;2023-08-31T07:24:25;28.10;99.90
19809;DHT22;48538;32.784;-96.802;2023-08-31T07:26:52;28.10;99.90
19809;DHT22;48538;32.784;-96.802;2023-08-31T07:29:18;28.10;99.90
19809;DHT22;48538;32.784;-96.802;2023-08-31T07:31:44;28.00;99.90
19809;DHT22;48538;32.784;-96.802;2023-08-31T07:34:10;28.00;99.90
19809;DHT22;48538;32.784;-96.802;2023-08-31T07:36:37;28.00;99.90
19809;DHT22;48538;32.784;-96.802;2023-08-31T07:39:03;28.00;99.90
19809;DHT22;48538;32.784;-96.802;2023-08-31T07:41:30;28.00;99.90
19809;DHT22;48538;32.784;-96.802;2023-08-31T07:43:56;28.00;99.90
19809;DHT22;48538;32.784;-96.802;2023-08-31T07:46:23;27.90;99.90
19809;DHT22;48538;32.784;-96.802;2023-08-31T07:48:52;28.00;99.90
19809;DHT22;48538;32.784;-96.802;2023-08-31T07:51:18;27.90;99.90
19809;DHT22;48538;32.784;-96.802;2023-08-31T07:53:49;27.90;99.90
19809;DHT22;48538;32.784;-96.802;2023-08-31T07:56:15;27.90;99.90
19809;DHT22;48538;32.784;-96.802;2023-08-31T07:58:42;27.80;99.90
19809;DHT22;48538;32.784;-96.802;2023-08-31T08:01:08;27.80;99.90
19809;DHT22;48538;32.784;-96.802;2023-08-31T08:03:34;27.80;99.90
19809;DHT22;48538;32.784;-96.802;2023-08-31T08:06:00;27.70;99.90
19809;DHT22;48538;32.784;-96.802;2023-08-31T08:08:27;27.70;99.90
19809;DHT22;48538;32.784;-96.802;2023-08-31T08:10:53;27.70;99.90
19809;DHT22;48538;32.784;-96.802;2023-08-31T08:13:20;27.60;99.90
19809;DHT22;48538;32.784;-96.802;2023-08-31T08:15:46;27.60;99.90
19809;DHT22;48538;32.784;-96.802;2023-08-31T08:18:13;27.50;99.90
19809;DHT22;48538;32.784;-96.802;2023-08-31T08:20:39;27.50;99.90
19809;DHT22;48538;32.784;-96.802;2023-08-31T08:23:06;27.50;99.90
19809;DHT22;48538;32.784;-96.802;2023-08-31T08:25:33;27.40;99.90
19809;DHT22;48538;32.784;-96.802;2023-08-31T08:27:59;27.40;99.90
19809;DHT22;48538;32.784;-96.802;2023-08-31T08:30:25;27.40;99.90
19809;DHT22;48538;32.784;-96.802;2023-08-31T08:32:52;27.40;99.90
19809;DHT22;48538;32.784;-96.802;2023-08-31T08:35:18;27.30;99.90
19809;DHT22;48538;32.784;-96.802;2023-08-31T08:37:44;27.30;99.90
19809;DHT22;48538;32.784;-96.802;2023-08-31T08:40:10;27.30;99.90
19809;DHT22;48538;32.784;-96.802;2023-08-31T08:42:40;27.30;99.90
19809;DHT22;48538;32.784;-96.802;2023-08-31T08:45:16;27.30;99.90
19809;DHT22;48538;32.784;-96.802;2023-08-31T08:47:43;27.20;99.90
19809;DHT22;48538;32.784;-96.802;2023-08-31T08:50:13;27.20;99.90
19809;DHT22;48538;32.784;-96.802;2023-08-31T08:52:40;27.20;99.90
19809;DHT22;48538;32.784;-96.802;2023-08-31T08:55:08;27.20;99.90
19809;DHT22;48538;32.784;-96.802;2023-08-31T08:57:35;27.20;99.90
19809;DHT22;48538;32.784;-96.802;2023-08-31T09:00:02;27.20;99.90
19809;DHT22;48538;32.784;-96.802;2023-08-31T09:02:29;27.20;99.90
19809;DHT22;48538;32.784;-96.802;2023-08-31T09:04:55;27.20;99.90
19809;DHT22;48538;32.784;-96.802;2023-08-31T09:07:25;27.10;99.90
19809;DHT22;48538;32.784;-96.802;2023-08-31T09:09:55;27.10;99.90
19809;DHT22;48538;32.784;-96.802;2023-08-31T09:12:23;27.10;99.90
19809;DHT22;48538;32.784;-96.802;2023-08-31T09:15:03;27.10;99.90
19809;DHT22;48538;32.784;-96.802;2023-08-31T09:17:42;27.10;99.90
19809;DHT22;48538;32.784;-96.802;2023-08-31T09:20:13;27.00;99.90
19809;DHT22;48538;32.784;-96.802;2023-08-31T09:22:42;27.00;99.90
19809;DHT22;48538;32.784;-96.802;2023-08-31T09:25:12;27.00;99.90
19809;DHT22;48538;32.784;-96.802;2023-08-31T09:27:39;27.00;99.90
19809;DHT22;48538;32.784;-96.802;2023-08-31T09:30:09;27.00;99.90
19809;DHT22;48538;32.784;-96.802;2023-08-31T09:32:35;27.00;99.90
19809;DHT22;48538;32.784;-96.802;2023-08-31T09:35:03;27.00;99.90
19809;DHT22;48538;32.784;-96.802;2023-08-31T09:37:34;27.00;99.90
19809;DHT22;48538;32.784;-96.802;2023-08-31T09:40:03;26.90;99.90
19809;DHT22;48538;32.784;-96.802;2023-08-31T09:42:39;26.90;99.90
19809;DHT22;48538;32.784;-96.802;2023-08-31T09:45:06;26.90;99.90
19809;DHT22;48538;32.784;-96.802;2023-08-31T09:47:33;26.90;99.90
19809;DHT22;48538;32.784;-96.802;2023-08-31T09:50:00;26.90;99.90
19809;DHT22;48538;32.784;-96.802;2023-08-31T09:52:27;26.90;99.90
19809;DHT22;48538;32.784;-96.802;2023-08-31T09:54:54;26.80;99.90
19809;DHT22;48538;32.784;-96.802;2023-08-31T09:57:20;26.80;99.90
19809;DHT22;48538;32.784;-96.802;2023-08-31T09:59:48;26.80;99.90
19809;DHT22;48538;32.784;-96.802;2023-08-31T10:02:16;26.80;99.90
19809;DHT22;48538;32.784;-96.802;2023-08-31T10:04:43;26.80;99.90
19809;DHT22;48538;32.784;-96.802;2023-08-31T10:07:10;26.80;99.90
19809;DHT22;48538;32.784;-96.802;2023-08-31T10:09:37;26.70;99.90
19809;DHT22;48538;32.784;-96.802;2023-08-31T10:12:05;26.70;99.90
19809;DHT22;48538;32.784;-96.802;2023-08-31T10:14:32;26.70;99.90
19809;DHT22;48538;32.784;-96.802;2023-08-31T10:16:59;26.70;99.90
19809;DHT22;48538;32.784;-96.802;2023-08-31T10:19:25;26.70;99.90
19809;DHT22;48538;32.784;-96.802;2023-08-31T10:21:52;26.70;99.90
19809;DHT22;48538;32.784;-96.802;2023-08-31T10:24:18;26.70;99.90
19809;DHT22;48538;32.784;-96.802;2023-08-31T10:27:20;26.70;99.90
19809;DHT22;48538;32.784;-96.802;2023-08-31T10:29:46;26.70;99.90
19809;DHT22;48538;32.784;-96.802;2023-08-31T10:32:17;26.60;99.90
19809;DHT22;48538;32.784;-96.802;2023-08-31T10:34:44;26.60;99.90
19809;DHT22;48538;32.784;-96.802;2023-08-31T10:37:30;26.60;99.90
19809;DHT22;48538;32.784;-96.802;2023-08-31T10:40:10;26.50;99.90
19809;DHT22;48538;32.784;-96.802;2023-08-31T10:42:47;26.50;99.90
19809;DHT22;48538;32.784;-96.802;2023-08-31T10:45:44;26.50;99.90
19809;DHT22;48538;32.784;-96.802;2023-08-31T10:48:10;26.50;99.90
19809;DHT22;48538;32.784;-96.802;2023-08-31T10:50:46;26.50;99.90
19809;DHT22;48538;32.784;-96.802;2023-08-31T10:53:15;26.40;99.90
19809;DHT22;48538;32.784;-96.802;2023-08-31T10:55:51;26.50;99.90
19809;DHT22;48538;32.784;-96.802;2023-08-31T10:58:18;26.40;99.90
19809;DHT22;48538;32.784;-96.802;2023-08-31T11:00:52;26.40;99.90
19809;DHT22;48538;32.784;-96.802;2023-08-31T11:03:19;26.40;99.90
19809;DHT22;48538;32.784;-96.802;2023-08-31T11:05:52;26.40;99.90
19809;DHT22;48538;32.784;-96.802;2023-08-31T11:08:24;26.40;99.90
19809;DHT22;48538;32.784;-96.802;2023-08-31T11:10:53;26.40;99.90
19809;DHT22;48538;32.784;-96.802;2023-08-31T11:13:20;26.40;99.90
19809;DHT22;48538;32.784;-96.802;2023-08-31T11:15:46;26.40;99.90
19809;DHT22;48538;32.784;-96.802;2023-08-31T11:18:13;26.30;99.90
19809;DHT22;48538;32.784;-96.802;2023-08-31T11:20:44;26.40;99.90
19809;DHT22;48538;32.784;-96.802;2023-08-31T11:23:10;26.30;99.90
19809;DHT22;48538;32.784;-96.802;2023-08-31T11:25:37;26.40;99.90
19809;DHT22;48538;32.784;-96.802;2023-08-31T11:28:06;26.30;99.90
19809;DHT22;48538;32.784;-96.802;2023-08-31T11:30:36;26.30;99.90
19809;DHT22;48538;32.784;-96.802;2023-08-31T11:33:04;26.30;99.90
19809;DHT22;48538;32.784;-96.802;2023-08-31T11:35:33;26.30;99.90
19809;DHT22;48538;32.784;-96.802;2023-08-31T11:38:01;26.30;99.90
19809;DHT22;48538;32.784;-96.802;2023-08-31T11:40:27;26.30;99.90
19809;DHT22;48538;32.784;-96.802;2023-08-31T11:42:54;26.30;99.90
19809;DHT22;48538;32.784;-96.802;2023-08-31T11:45:22;26.30;99.90
19809;DHT22;48538;32.784;-96.802;2023-08-31T11:47:49;26.30;99.90
19809;DHT22;48538;32.784;-96.802;2023-08-31T11:50:16;26.30;99.90
19809;DHT22;48538;32.784;-96.802;2023-08-31T11:52:43;26.30;99.90
19809;DHT22;48538;32.784;-96.802;2023-08-31T11:55:11;26.30;99.90
19809;DHT22;48538;32.784;-96.802;2023-08-31T11:57:38;26.30;99.90
19809;DHT22;48538;32.784;-96.802;2023-08-31T12:00:05;26.30;99.90
19809;DHT22;48538;32.784;-96.802;2023-08-31T12:02:38;26.20;99.90
19809;DHT22;48538;32.784;-96.802;2023-08-31T12:05:05;26.20;99.90
19809;DHT22;48538;32.784;-96.802;2023-08-31T12:07:40;26.30;99.90
19809;DHT22;48538;32.784;-96.802;2023-08-31T12:10:09;26.20;99.90
19809;DHT22;48538;32.784;-96.802;2023-08-31T12:12:36;26.20;99.90
19809;DHT22;48538;32.784;-96.802;2023-08-31T12:15:03;26.20;99.90
19809;DHT22;48538;32.784;-96.802;2023-08-31T12:17:30;26.20;99.90
19809;DHT22;48538;32.784;-96.802;2023-08-31T12:20:03;26.20;99.90
19809;DHT22;48538;32.784;-96.802;2023-08-31T12:22:32;26.10;99.90
19809;DHT22;48538;32.784;-96.802;2023-08-31T12:24:59;26.20;99.90
19809;DHT22;48538;32.784;-96.802;2023-08-31T12:27:25;26.20;99.90
19809;DHT22;48538;32.784;-96.802;2023-08-31T12:29:52;26.20;99.90
19809;DHT22;48538;32.784;-96.802;2023-08-31T12:32:18;26.20;99.90
19809;DHT22;48538;32.784;-96.802;2023-08-31T12:34:44;26.20;99.90
19809;DHT22;48538;32.784;-96.802;2023-08-31T12:37:10;26.20;99.90
19809;DHT22;48538;32.784;-96.802;2023-08-31T12:39:37;26.20;99.90
19809;DHT22;48538;32.784;-96.802;2023-08-31T12:42:03;26.20;99.90
19809;DHT22;48538;32.784;-96.802;2023-08-31T12:44:30;26.20;99.90
19809;DHT22;48538;32.784;-96.802;2023-08-31T12:46:57;26.20;99.90
19809;DHT22;48538;32.784;-96.802;2023-08-31T12:49:23;26.20;99.90
19809;DHT22;48538;32.784;-96.802;2023-08-31T12:51:49;26.20;99.90
19809;DHT22;48538;32.784;-96.802;2023-08-31T12:54:21;26.20;99.90
19809;DHT22;48538;32.784;-96.802;2023-08-31T12:56:47;26.30;99.90
19809;DHT22;48538;32.784;-96.802;2023-08-31T12:59:14;26.30;99.90
19809;DHT22;48538;32.784;-96.802;2023-08-31T13:01:40;26.30;99.90
19809;DHT22;48538;32.784;-96.802;2023-08-31T13:04:07;26.30;99.90
19809;DHT22;48538;32.784;-96.802;2023-08-31T13:06:33;26.40;99.90
19809;DHT22;48538;32.784;-96.802;2023-08-31T13:08:59;26.40;99.90
19809;DHT22;48538;32.784;-96.802;2023-08-31T13:11:25;26.40;99.90
19809;DHT22;48538;32.784;-96.802;2023-08-31T13:13:51;26.40;99.90
19809;DHT22;48538;32.784;-96.802;2023-08-31T13:16:18;26.50;99.90
19809;DHT22;48538;32.784;-96.802;2023-08-31T13:18:44;26.50;99.90
19809;DHT22;48538;32.784;-96.802;2023-08-31T13:21:11;26.50;99.90
19809;DHT22;48538;32.784;-96.802;2023-08-31T13:23:37;26.50;99.90
19809;DHT22;48538;32.784;-96.802;2023-08-31T13:26:03;26.50;99.90
19809;DHT22;48538;32.784;-96.802;2023-08-31T13:28:29;26.50;99.90
19809;DHT22;48538;32.784;-96.802;2023-08-31T13:30:56;26.60;99.90
19809;DHT22;48538;32.784;-96.802;2023-08-31T13:33:27;26.60;99.90
19809;DHT22;48538;32.784;-96.802;2023-08-31T13:35:59;26.70;99.90
19809;DHT22;48538;32.784;-96.802;2023-08-31T13:38:26;26.70;99.90
19809;DHT22;48538;32.784;-96.802;2023-08-31T13:40:56;26.70;99.90
19809;DHT22;48538;32.784;-96.802;2023-08-31T13:43:23;26.70;99.90
19809;DHT22;48538;32.784;-96.802;2023-08-31T13:45:50;26.80;99.90
19809;DHT22;48538;32.784;-96.802;2023-08-31T13:48:16;26.80;99.90
19809;DHT22;48538;32.784;-96.802;2023-08-31T13:50:42;26.80;99.90
19809;DHT22;48538;32.784;-96.802;2023-08-31T13:53:09;26.80;99.90
19809;DHT22;48538;32.784;-96.802;2023-08-31T13:55:35;26.90;99.90
19809;DHT22;48538;32.784;-96.802;2023-08-31T13:58:06;26.80;99.90
19809;DHT22;48538;32.784;-96.802;2023-08-31T14:00:36;26.90;99.90
19809;DHT22;48538;32.784;-96.802;2023-08-31T14:03:04;26.90;99.90
19809;DHT22;48538;32.784;-96.802;2023-08-31T14:05:31;26.90;99.90
19809;DHT22;48538;32.784;-96.802;2023-08-31T14:07:58;27.00;99.90
19809;DHT22;48538;32.784;-96.802;2023-08-31T14:10:27;27.00;99.90
19809;DHT22;48538;32.784;-96.802;2023-08-31T14:12:53;27.00;99.90
19809;DHT22;48538;32.784;-96.802;2023-08-31T14:15:19;27.00;99.90
19809;DHT22;48538;32.784;-96.802;2023-08-31T14:17:45;27.00;99.90
19809;DHT22;48538;32.784;-96.802;2023-08-31T14:20:12;27.00;99.90
19809;DHT22;48538;32.784;-96.802;2023-08-31T14:22:38;27.00;99.90
19809;DHT22;48538;32.784;-96.802;2023-08-31T14:25:10;27.10;99.90
19809;DHT22;48538;32.784;-96.802;2023-08-31T14:27:37;27.10;99.90
19809;DHT22;48538;32.784;-96.802;2023-08-31T14:30:05;27.10;99.90
19809;DHT22;48538;32.784;-96.802;2023-08-31T14:32:32;27.10;99.90
19809;DHT22;48538;32.784;-96.802;2023-08-31T14:34:58;27.20;99.90
19809;DHT22;48538;32.784;-96.802;2023-08-31T14:37:24;27.20;99.90
19809;DHT22;48538;32.784;-96.802;2023-08-31T14:39:50;27.20;99.90
19809;DHT22;48538;32.784;-96.802;2023-08-31T14:42:17;27.30;99.90
19809;DHT22;48538;32.784;-96.802;2023-08-31T14:44:47;27.20;99.90
19809;DHT22;48538;32.784;-96.802;2023-08-31T14:47:13;27.30;99.90
19809;DHT22;48538;32.784;-96.802;2023-08-31T14:49:40;27.30;99.90
19809;DHT22;48538;32.784;-96.802;2023-08-31T14:52:06;27.30;99.90
19809;DHT22;48538;32.784;-96.802;2023-08-31T14:54:36;27.30;99.90
19809;DHT22;48538;32.784;-96.802;2023-08-31T14:57:02;27.40;99.90
19809;DHT22;48538;32.784;-96.802;2023-08-31T14:59:31;27.40;99.90
19809;DHT22;48538;32.784;-96.802;2023-08-31T15:01:58;27.40;99.90
19809;DHT22;48538;32.784;-96.802;2023-08-31T15:04:24;27.50;99.90
19809;DHT22;48538;32.784;-96.802;2023-08-31T15:06:53;27.50;99.90
19809;DHT22;48538;32.784;-96.802;2023-08-31T15:09:19;27.50;99.90
19809;DHT22;48538;32.784;-96.802;2023-08-31T15:11:45;27.60;99.90